createdAt,value
2019-02-17T00:02:11.007Z,80.88
2019-02-17T00:04:40.668Z,80.93
2019-02-17T00:07:10.388Z,80.87
2019-02-17T00:09:40.077Z,81.13
2019-02-17T00:12:09.758Z,81.22
2019-02-17T00:14:39.420Z,81.32
2019-02-17T00:17:09.126Z,81.14
2019-02-17T00:19:38.798Z,81.49
2019-02-17T00:22:15.276Z,81.42
2019-02-17T00:24:44.962Z,81.56
2019-02-17T00:27:14.663Z,81.44
2019-02-17T00:29:44.357Z,81.59
2019-02-17T00:32:14.043Z,81.77
2019-02-17T00:34:43.732Z,81.81
2019-02-17T00:37:13.407Z,82.00
2019-02-17T00:39:43.106Z,81.95
2019-02-17T00:42:12.895Z,82.08
2019-02-17T00:44:42.577Z,81.75
2019-02-17T00:47:12.282Z,81.82
2019-02-17T00:49:42.005Z,81.39
2019-02-17T00:52:11.685Z,81.70
2019-02-17T00:54:41.341Z,81.60
2019-02-17T00:57:11.049Z,81.84
2019-02-17T00:59:40.662Z,82.12
2019-02-17T01:02:10.317Z,82.20
2019-02-17T01:04:39.964Z,82.25
2019-02-17T01:07:09.579Z,82.30
2019-02-17T01:09:39.238Z,82.04
2019-02-17T01:12:08.930Z,82.19
2019-02-17T01:14:38.577Z,81.73
2019-02-17T01:17:08.197Z,81.91
2019-02-17T01:19:37.905Z,81.92
2019-02-17T01:22:07.577Z,81.88
2019-02-17T01:24:37.253Z,81.86
2019-02-17T01:27:06.924Z,81.97
2019-02-17T01:29:36.638Z,81.78
2019-02-17T01:32:06.309Z,81.98
2019-02-17T01:34:36.016Z,81.61
2019-02-17T01:37:06.113Z,81.62
2019-02-17T01:39:35.879Z,81.81
2019-02-17T01:42:05.555Z,81.49
2019-02-17T01:44:35.265Z,81.24
2019-02-17T01:47:04.983Z,81.25
2019-02-17T01:49:34.662Z,81.36
2019-02-17T01:52:04.308Z,81.58
2019-02-17T01:54:34.193Z,81.51
2019-02-17T01:57:03.884Z,81.48
2019-02-17T01:59:33.648Z,81.41
2019-02-17T02:02:03.330Z,81.87
2019-02-17T02:04:33.006Z,81.75
2019-02-17T02:07:02.722Z,81.88
2019-02-17T02:09:32.409Z,82.21
2019-02-17T02:12:02.110Z,82.23
2019-02-17T02:14:32.449Z,82.11
2019-02-17T02:17:04.058Z,82.06
2019-02-17T02:19:33.746Z,82.40
2019-02-17T02:22:03.423Z,82.46
2019-02-17T02:24:33.130Z,82.63
2019-02-17T02:27:07.941Z,82.46
2019-02-17T02:29:41.051Z,82.68
2019-02-17T02:32:09.027Z,82.98
2019-02-17T02:34:38.686Z,83.08
2019-02-17T02:37:08.392Z,83.05
2019-02-17T02:39:38.111Z,83.12
2019-02-17T02:42:07.796Z,83.03
2019-02-17T02:44:37.468Z,83.08
2019-02-17T02:47:07.162Z,83.12
2019-02-17T02:49:36.858Z,83.07
2019-02-17T02:52:06.579Z,83.11
2019-02-17T02:54:36.455Z,82.93
2019-02-17T02:57:06.139Z,83.24
2019-02-17T02:59:35.843Z,83.24
2019-02-17T03:02:05.545Z,83.14
2019-02-17T03:04:35.197Z,83.21
2019-02-17T03:07:04.899Z,83.46
2019-02-17T03:09:34.558Z,83.52
2019-02-17T03:12:04.696Z,83.72
2019-02-17T03:14:34.471Z,83.59
2019-02-17T03:17:04.566Z,83.58
2019-02-17T03:19:34.539Z,83.77
2019-02-17T03:22:04.690Z,83.68
2019-02-17T03:24:34.364Z,83.65
2019-02-17T03:27:04.053Z,83.61
2019-02-17T03:29:34.586Z,83.75
2019-02-17T03:32:04.275Z,83.86
2019-02-17T03:34:33.956Z,83.79
2019-02-17T03:37:03.690Z,83.58
2019-02-17T03:39:33.340Z,83.83
2019-02-17T03:42:03.008Z,83.86
2019-02-17T03:44:32.806Z,83.89
2019-02-17T03:47:02.546Z,83.91
2019-02-17T03:49:32.196Z,83.90
2019-02-17T03:52:01.878Z,84.04
2019-02-17T03:54:31.589Z,84.12
2019-02-17T03:57:01.261Z,84.48
2019-02-17T03:59:30.914Z,84.28
2019-02-17T04:02:00.606Z,84.31
2019-02-17T04:04:30.318Z,84.38
2019-02-17T04:06:59.962Z,84.38
2019-02-17T04:09:29.639Z,84.43
2019-02-17T04:11:59.328Z,84.54
2019-02-17T04:14:29.074Z,84.56
2019-02-17T04:16:58.948Z,84.66
2019-02-17T04:19:28.662Z,84.55
2019-02-17T04:21:58.365Z,84.42
2019-02-17T04:24:28.043Z,84.53
2019-02-17T04:26:57.756Z,84.51
2019-02-17T04:29:27.466Z,84.63
2019-02-17T04:31:57.135Z,84.66
2019-02-17T04:34:26.809Z,84.61
2019-02-17T04:36:56.468Z,84.59
2019-02-17T04:39:26.162Z,84.74
2019-02-17T04:41:55.854Z,84.75
2019-02-17T04:44:31.698Z,84.84
2019-02-17T04:47:01.360Z,84.88
2019-02-17T04:49:31.060Z,84.90
2019-02-17T04:52:00.762Z,84.93
2019-02-17T04:54:30.477Z,85.18
2019-02-17T04:57:00.166Z,85.01
2019-02-17T04:59:29.959Z,85.10
2019-02-17T05:01:59.636Z,85.14
2019-02-17T05:04:29.325Z,85.18
2019-02-17T05:06:59.084Z,85.01
2019-02-17T05:09:28.876Z,85.06
2019-02-17T05:11:58.520Z,85.20
2019-02-17T05:14:28.228Z,85.20
2019-02-17T05:16:57.909Z,84.99
2019-02-17T05:19:27.614Z,85.30
2019-02-17T05:21:57.309Z,85.05
2019-02-17T05:24:27.076Z,84.85
2019-02-17T05:26:56.768Z,84.95
2019-02-17T05:29:26.488Z,84.96
2019-02-17T05:31:56.144Z,85.04
2019-02-17T05:34:25.875Z,85.14
2019-02-17T05:36:55.583Z,85.26
2019-02-17T05:39:25.300Z,85.19
2019-02-17T05:41:54.978Z,85.08
2019-02-17T05:44:24.691Z,85.23
2019-02-17T05:46:54.354Z,84.99
2019-02-17T05:49:24.050Z,85.10
2019-02-17T05:51:53.744Z,85.12
2019-02-17T05:54:23.482Z,85.13
2019-02-17T05:56:53.098Z,85.31
2019-02-17T05:59:22.780Z,85.13
2019-02-17T06:01:52.435Z,84.84
2019-02-17T06:04:22.173Z,84.83
2019-02-17T06:06:51.832Z,84.71
2019-02-17T06:09:21.564Z,84.84
2019-02-17T06:11:51.229Z,84.87
2019-02-17T06:14:20.939Z,84.49
2019-02-17T06:16:50.640Z,84.78
2019-02-17T06:19:20.309Z,84.41
2019-02-17T06:21:49.993Z,84.27
2019-02-17T06:24:19.748Z,84.59
2019-02-17T06:26:49.401Z,84.55
2019-02-17T06:29:19.098Z,84.65
2019-02-17T06:31:48.778Z,84.78
2019-02-17T06:34:18.487Z,84.85
2019-02-17T06:36:48.161Z,84.79
2019-02-17T06:39:17.836Z,84.34
2019-02-17T06:41:47.492Z,84.40
2019-02-17T06:44:17.218Z,84.54
2019-02-17T06:46:48.532Z,84.47
2019-02-17T06:49:18.260Z,84.45
2019-02-17T06:51:47.946Z,84.32
2019-02-17T06:54:17.622Z,84.25
2019-02-17T06:56:48.937Z,84.38
2019-02-17T06:59:18.602Z,84.32
2019-02-17T07:01:48.283Z,84.20
2019-02-17T07:04:18.986Z,84.23
2019-02-17T07:06:50.305Z,84.20
2019-02-17T07:09:21.907Z,84.31
2019-02-17T07:11:51.575Z,84.25
2019-02-17T07:14:21.331Z,84.34
2019-02-17T07:16:50.989Z,84.30
2019-02-17T07:19:20.698Z,83.96
2019-02-17T07:21:50.389Z,84.04
2019-02-17T07:24:20.110Z,84.00
2019-02-17T07:26:49.806Z,83.85
2019-02-17T07:29:19.488Z,83.96
2019-02-17T07:31:49.172Z,83.63
2019-02-17T07:34:18.926Z,83.87
2019-02-17T07:36:48.641Z,83.80
2019-02-17T07:39:18.325Z,83.12
2019-02-17T07:41:48.030Z,83.26
2019-02-17T07:44:17.730Z,83.52
2019-02-17T07:46:47.422Z,83.44
2019-02-17T07:49:17.191Z,83.57
2019-02-17T07:51:46.907Z,83.76
2019-02-17T07:54:16.676Z,83.71
2019-02-17T07:56:48.428Z,83.42
2019-02-17T07:59:17.738Z,83.45
2019-02-17T08:01:47.420Z,83.55
2019-02-17T08:04:17.115Z,83.42
2019-02-17T08:06:46.880Z,83.58
2019-02-17T08:09:16.583Z,83.37
2019-02-17T08:11:46.275Z,83.33
2019-02-17T08:14:15.960Z,83.51
2019-02-17T08:16:46.012Z,83.31
2019-02-17T08:19:15.672Z,82.96
2019-02-17T08:21:45.428Z,82.57
2019-02-17T08:24:15.104Z,81.84
2019-02-17T08:26:44.794Z,81.90
2019-02-17T08:29:14.473Z,81.76
2019-02-17T08:31:44.202Z,81.43
2019-02-17T08:34:13.871Z,81.64
2019-02-17T08:36:43.551Z,81.50
2019-02-17T08:39:13.200Z,81.70
2019-02-17T08:41:42.916Z,81.62
2019-02-17T08:44:12.573Z,81.59
2019-02-17T08:46:42.304Z,81.15
2019-02-17T08:49:12.011Z,81.06
2019-02-17T08:51:41.654Z,80.84
2019-02-17T08:54:11.350Z,80.59
2019-02-17T08:56:41.042Z,80.11
2019-02-17T08:59:10.702Z,79.73
2019-02-17T09:01:40.588Z,79.74
2019-02-17T09:04:10.249Z,78.89
2019-02-17T09:06:39.920Z,78.60
2019-02-17T09:09:09.611Z,78.87
2019-02-17T09:11:39.308Z,78.84
2019-02-17T09:14:08.972Z,78.05
2019-02-17T09:16:38.681Z,76.88
2019-02-17T09:19:08.373Z,76.80
2019-02-17T09:21:38.050Z,76.65
2019-02-17T09:24:07.739Z,76.66
2019-02-17T09:26:37.447Z,75.93
2019-02-17T09:29:07.121Z,75.29
2019-02-17T09:31:36.801Z,75.34
2019-02-17T09:34:06.487Z,74.93
2019-02-17T09:36:36.191Z,74.35
2019-02-17T09:39:08.181Z,74.22
2019-02-17T09:41:37.888Z,73.82
2019-02-17T09:44:07.533Z,72.70
2019-02-17T09:46:37.382Z,73.77
2019-02-17T09:49:07.054Z,72.84
2019-02-17T09:51:36.842Z,72.90
2019-02-17T09:54:06.520Z,72.05
2019-02-17T09:56:36.229Z,72.62
2019-02-17T09:59:05.918Z,72.19
2019-02-17T10:01:35.567Z,71.15
2019-02-17T10:04:05.218Z,71.64
2019-02-17T10:06:35.002Z,71.13
2019-02-17T10:09:06.306Z,70.82
2019-02-17T10:11:36.312Z,70.69
2019-02-17T10:14:06.003Z,70.38
2019-02-17T10:16:35.646Z,70.77
2019-02-17T10:19:05.264Z,71.02
2019-02-17T10:21:34.889Z,71.07
2019-02-17T10:24:04.543Z,70.84
2019-02-17T10:26:34.156Z,70.96
2019-02-17T10:29:03.794Z,71.16
2019-02-17T10:31:33.425Z,70.73
2019-02-17T10:34:03.127Z,69.64
2019-02-17T10:36:32.760Z,69.35
2019-02-17T10:39:02.926Z,69.80
2019-02-17T10:41:32.619Z,69.11
2019-02-17T10:44:02.333Z,69.97
2019-02-17T10:46:32.048Z,69.65
2019-02-17T10:49:01.696Z,69.88
2019-02-17T10:51:31.313Z,70.78
2019-02-17T10:54:00.956Z,69.82
2019-02-17T10:56:30.599Z,70.08
2019-02-17T10:59:00.225Z,69.62
2019-02-17T11:01:29.871Z,68.82
2019-02-17T11:04:07.630Z,68.91
2019-02-17T11:06:37.302Z,69.92
2019-02-17T11:09:09.285Z,69.69
2019-02-17T11:11:38.978Z,69.87
2019-02-17T11:14:08.679Z,70.05
2019-02-17T11:16:38.416Z,68.80
2019-02-17T11:19:08.110Z,69.71
2019-02-17T11:21:37.767Z,70.17
2019-02-17T11:24:07.527Z,69.25
2019-02-17T11:26:37.185Z,69.83
2019-02-17T11:29:06.965Z,69.74
2019-02-17T11:31:36.681Z,69.96
2019-02-17T11:34:06.515Z,69.63
2019-02-17T11:36:36.189Z,69.50
2019-02-17T11:39:09.081Z,70.04
2019-02-17T11:41:38.799Z,68.86
2019-02-17T11:44:08.468Z,69.37
2019-02-17T11:46:38.165Z,69.28
2019-02-17T11:49:07.879Z,69.38
2019-02-17T11:51:37.536Z,69.23
2019-02-17T11:54:07.247Z,68.64
2019-02-17T11:56:36.926Z,68.37
2019-02-17T11:59:06.639Z,68.21
2019-02-17T12:01:36.298Z,68.55
2019-02-17T12:04:06.017Z,68.78
2019-02-17T12:06:35.680Z,68.66
2019-02-17T12:09:07.400Z,67.89
2019-02-17T12:11:38.173Z,69.02
2019-02-17T12:14:07.870Z,67.58
2019-02-17T12:16:37.578Z,68.06
2019-02-17T12:19:07.275Z,68.04
2019-02-17T12:21:38.610Z,67.51
2019-02-17T12:24:15.708Z,68.34
2019-02-17T12:26:53.014Z,67.52
2019-02-17T12:29:38.307Z,67.25
2019-02-17T12:32:07.928Z,68.04
2019-02-17T12:34:37.662Z,67.03
2019-02-17T12:37:07.330Z,67.07
2019-02-17T12:39:37.026Z,66.64
2019-02-17T12:42:06.764Z,67.38
2019-02-17T12:44:36.467Z,67.88
2019-02-17T12:47:06.207Z,68.19
2019-02-17T12:49:36.070Z,66.88
2019-02-17T12:52:05.772Z,66.47
2019-02-17T12:54:35.481Z,66.14
2019-02-17T12:57:05.177Z,66.64
2019-02-17T12:59:34.848Z,66.65
2019-02-17T13:02:04.580Z,66.47
2019-02-17T13:04:34.277Z,66.15
2019-02-17T13:07:05.064Z,64.59
2019-02-17T13:09:34.774Z,64.09
2019-02-17T13:12:04.471Z,64.67
2019-02-17T13:14:34.167Z,63.90
2019-02-17T13:17:03.878Z,64.63
2019-02-17T13:19:33.511Z,63.36
2019-02-17T13:22:03.139Z,63.12
2019-02-17T13:24:32.772Z,63.41
2019-02-17T13:27:02.414Z,63.06
2019-02-17T13:29:32.048Z,61.64
2019-02-17T13:32:01.674Z,61.12
2019-02-17T13:34:31.433Z,61.28
2019-02-17T13:37:01.103Z,62.49
2019-02-17T13:39:30.853Z,62.99
2019-02-17T13:42:00.557Z,63.06
2019-02-17T13:44:30.313Z,62.54
2019-02-17T13:47:00.074Z,62.52
2019-02-17T13:49:29.804Z,62.95
2019-02-17T13:51:59.519Z,63.03
2019-02-17T13:54:29.210Z,61.71
2019-02-17T13:56:58.937Z,62.11
2019-02-17T13:59:28.606Z,62.31
2019-02-17T14:01:58.292Z,61.54
2019-02-17T14:04:27.985Z,61.40
2019-02-17T14:06:57.707Z,60.20
2019-02-17T14:09:27.385Z,60.18
2019-02-17T14:11:57.076Z,59.16
2019-02-17T14:14:26.763Z,59.34
2019-02-17T14:16:56.505Z,59.23
2019-02-17T14:19:26.193Z,59.55
2019-02-17T14:21:55.913Z,59.75
2019-02-17T14:24:25.612Z,59.31
2019-02-17T14:26:55.333Z,58.77
2019-02-17T14:29:25.028Z,57.91
2019-02-17T14:31:54.717Z,59.09
2019-02-17T14:34:27.495Z,57.45
2019-02-17T14:36:57.180Z,57.54
2019-02-17T14:39:26.922Z,56.84
2019-02-17T14:41:56.636Z,57.17
2019-02-17T14:44:26.308Z,57.75
2019-02-17T14:46:56.034Z,58.33
2019-02-17T14:49:25.735Z,59.38
2019-02-17T14:51:55.437Z,59.20
2019-02-17T14:54:25.101Z,58.65
2019-02-17T14:56:54.891Z,59.69
2019-02-17T14:59:24.565Z,60.99
2019-02-17T15:01:54.284Z,61.37
2019-02-17T15:04:23.981Z,61.13
2019-02-17T15:06:53.681Z,61.07
2019-02-17T15:09:23.405Z,60.42
2019-02-17T15:11:54.799Z,60.06
2019-02-17T15:14:26.444Z,60.07
2019-02-17T15:17:01.652Z,60.14
2019-02-17T15:19:35.903Z,60.94
2019-02-17T15:22:08.833Z,60.28
2019-02-17T15:24:44.903Z,60.56
2019-02-17T15:27:23.090Z,60.97
2019-02-17T15:29:56.852Z,60.28
2019-02-17T15:32:30.785Z,60.33
2019-02-17T15:35:07.202Z,61.41
2019-02-17T15:37:38.890Z,62.03
2019-02-17T15:40:16.008Z,61.88
2019-02-17T15:42:56.785Z,62.98
2019-02-17T15:45:32.498Z,62.61
2019-02-17T15:48:06.623Z,62.68
2019-02-17T15:50:40.611Z,63.07
2019-02-17T15:53:17.690Z,63.00
2019-02-17T15:55:51.200Z,63.45
2019-02-17T15:58:24.938Z,63.81
2019-02-17T16:01:00.645Z,64.29
2019-02-17T16:03:33.816Z,64.93
2019-02-17T16:06:09.902Z,65.28
2019-02-17T16:08:44.731Z,65.62
2019-02-17T16:11:22.175Z,66.17
2019-02-17T16:13:54.004Z,66.85
2019-02-17T16:16:29.499Z,67.29
2019-02-17T16:19:03.443Z,67.49
2019-02-17T16:21:36.441Z,67.81
2019-02-17T16:24:07.502Z,68.71
2019-02-17T16:26:38.975Z,68.93
2019-02-17T16:29:09.781Z,68.97
2019-02-17T16:31:39.671Z,69.07
2019-02-17T16:34:09.719Z,68.98
2019-02-17T16:36:39.489Z,69.58
2019-02-17T16:39:11.722Z,69.61
2019-02-17T16:41:41.444Z,69.88
2019-02-17T16:44:11.276Z,69.81
2019-02-17T16:46:41.128Z,69.69
2019-02-17T16:49:10.864Z,70.14
2019-02-17T16:51:40.775Z,70.57
2019-02-17T16:54:11.566Z,70.89
2019-02-17T16:56:41.866Z,70.96
2019-02-17T16:59:14.200Z,71.01
2019-02-17T17:01:44.024Z,70.62
2019-02-17T17:04:14.629Z,70.82
2019-02-17T17:06:46.400Z,71.31
2019-02-17T17:09:16.119Z,71.75
2019-02-17T17:11:45.811Z,72.34
2019-02-17T17:14:15.527Z,72.98
2019-02-17T17:16:45.186Z,73.73
2019-02-17T17:19:14.875Z,74.22
2019-02-17T17:21:44.543Z,73.94
2019-02-17T17:24:14.393Z,73.50
2019-02-17T17:26:44.082Z,73.16
2019-02-17T17:29:15.362Z,73.07
2019-02-17T17:31:45.038Z,73.11
2019-02-17T17:34:14.833Z,72.27
2019-02-17T17:36:44.544Z,72.33
2019-02-17T17:39:14.262Z,72.21
2019-02-17T17:41:43.976Z,72.42
2019-02-17T17:44:13.660Z,72.68
2019-02-17T17:46:43.336Z,72.39
2019-02-17T17:49:19.297Z,71.93
2019-02-17T17:51:44.520Z,71.84
2019-02-17T17:54:14.246Z,71.00
2019-02-17T17:56:43.938Z,71.52
2019-02-17T17:59:13.841Z,71.27
2019-02-17T18:01:43.502Z,72.06
2019-02-17T18:04:13.195Z,72.57
2019-02-17T18:06:42.909Z,72.58
2019-02-17T18:09:12.591Z,72.84
2019-02-17T18:11:44.097Z,71.73
2019-02-17T18:14:13.798Z,71.47
2019-02-17T18:16:43.522Z,71.41
2019-02-17T18:19:13.757Z,71.13
2019-02-17T18:21:43.469Z,70.84
2019-02-17T18:24:13.148Z,70.93
2019-02-17T18:26:42.876Z,71.62
2019-02-17T18:29:12.566Z,72.44
2019-02-17T18:31:42.323Z,72.84
2019-02-17T18:34:12.134Z,73.40
2019-02-17T18:36:41.867Z,72.89
2019-02-17T18:39:11.532Z,72.37
2019-02-17T18:41:41.247Z,72.06
2019-02-17T18:44:10.929Z,71.53
2019-02-17T18:46:40.637Z,71.70
2019-02-17T18:49:10.325Z,71.83
2019-02-17T18:51:41.756Z,72.31
2019-02-17T18:54:11.613Z,71.86
2019-02-17T18:56:41.369Z,71.86
2019-02-17T18:59:10.982Z,71.72
2019-02-17T19:01:40.693Z,71.35
2019-02-17T19:04:10.387Z,71.57
2019-02-17T19:06:40.067Z,71.76
2019-02-17T19:09:11.380Z,72.31
2019-02-17T19:11:41.465Z,71.54
2019-02-17T19:14:11.245Z,71.54
2019-02-17T19:16:40.946Z,71.52
2019-02-17T19:19:10.701Z,71.46
2019-02-17T19:21:40.396Z,71.73
2019-02-17T19:24:10.079Z,71.77
2019-02-17T19:26:39.827Z,71.74
2019-02-17T19:29:09.502Z,72.31
2019-02-17T19:31:39.199Z,72.15
2019-02-17T19:34:13.940Z,72.38
2019-02-17T19:36:43.645Z,72.54
2019-02-17T19:39:13.348Z,72.50
2019-02-17T19:41:43.037Z,72.86
2019-02-17T19:44:19.864Z,72.84
2019-02-17T19:46:49.613Z,72.89
2019-02-17T19:49:19.338Z,73.25
2019-02-17T19:51:49.737Z,73.34
2019-02-17T19:54:19.640Z,73.76
2019-02-17T19:56:50.990Z,73.00
2019-02-17T19:59:20.682Z,73.00
2019-02-17T20:01:50.465Z,73.49
2019-02-17T20:04:21.850Z,74.10
2019-02-17T20:06:54.926Z,74.36
2019-02-17T20:09:27.058Z,73.78
2019-02-17T20:11:57.708Z,73.05
2019-02-17T20:14:31.749Z,73.37
2019-02-17T20:17:02.878Z,72.76
2019-02-17T20:19:35.480Z,72.91
2019-02-17T20:22:06.737Z,72.68
2019-02-17T20:24:36.647Z,73.03
2019-02-17T20:27:06.392Z,72.90
2019-02-17T20:29:36.068Z,72.91
2019-02-17T20:32:05.801Z,73.05
2019-02-17T20:34:35.521Z,72.49
2019-02-17T20:37:05.185Z,72.92
2019-02-17T20:39:34.986Z,73.22
2019-02-17T20:42:04.637Z,73.31
2019-02-17T20:44:34.359Z,73.61
2019-02-17T20:47:04.035Z,73.77
2019-02-17T20:49:33.758Z,74.42
2019-02-17T20:52:03.444Z,75.05
2019-02-17T20:54:33.163Z,75.67
2019-02-17T20:57:03.096Z,76.51
2019-02-17T20:59:32.806Z,76.23
2019-02-17T21:02:02.520Z,77.36
2019-02-17T21:04:32.247Z,77.22
2019-02-17T21:07:02.037Z,77.20
2019-02-17T21:09:31.739Z,77.57
2019-02-17T21:12:01.445Z,77.84
2019-02-17T21:14:31.174Z,77.98
2019-02-17T21:17:00.847Z,78.32
2019-02-17T21:19:30.563Z,78.76
2019-02-17T21:22:00.253Z,78.86
2019-02-17T21:24:29.942Z,79.02
2019-02-17T21:26:59.593Z,79.35
2019-02-17T21:29:29.797Z,79.65
2019-02-17T21:31:59.480Z,79.58
2019-02-17T21:34:29.177Z,79.92
2019-02-17T21:36:58.936Z,80.34
2019-02-17T21:39:28.621Z,80.22
2019-02-17T21:41:58.310Z,80.06
2019-02-17T21:44:28.061Z,80.64
2019-02-17T21:46:57.692Z,80.58
2019-02-17T21:49:27.398Z,80.58
2019-02-17T21:51:57.096Z,80.75
2019-02-17T21:54:26.898Z,80.89
2019-02-17T21:56:56.566Z,81.01
2019-02-17T21:59:26.332Z,80.92
2019-02-17T22:01:56.093Z,81.54
2019-02-17T22:04:25.756Z,81.49
2019-02-17T22:06:55.462Z,81.87
2019-02-17T22:09:25.152Z,81.73
2019-02-17T22:11:54.928Z,80.91
2019-02-17T22:14:24.629Z,80.98
2019-02-17T22:16:54.340Z,80.74
2019-02-17T22:19:24.018Z,80.40
2019-02-17T22:21:53.769Z,80.50
2019-02-17T22:24:23.453Z,80.68
2019-02-17T22:26:53.180Z,81.02
2019-02-17T22:29:22.934Z,81.30
2019-02-17T22:31:52.622Z,81.16
2019-02-17T22:34:22.324Z,81.12
2019-02-17T22:36:52.012Z,81.39
2019-02-17T22:39:21.753Z,80.92
2019-02-17T22:41:51.483Z,81.00
2019-02-17T22:44:21.176Z,81.00
2019-02-17T22:46:50.902Z,80.87
2019-02-17T22:49:20.572Z,80.95
2019-02-17T22:51:50.246Z,81.08
2019-02-17T22:54:19.951Z,81.09
2019-02-17T22:56:49.706Z,80.74
2019-02-17T22:59:19.407Z,80.49
2019-02-17T23:01:49.111Z,79.72
2019-02-17T23:04:18.808Z,80.22
2019-02-17T23:06:54.140Z,80.04
2019-02-17T23:09:19.974Z,79.91
2019-02-17T23:11:49.768Z,79.94
2019-02-17T23:14:19.508Z,80.13
2019-02-17T23:16:49.236Z,80.75
2019-02-17T23:19:18.932Z,80.82
2019-02-17T23:21:48.649Z,80.93
2019-02-17T23:24:18.975Z,80.83
2019-02-17T23:26:48.685Z,81.31
2019-02-17T23:29:18.341Z,81.07
2019-02-17T23:31:48.061Z,80.34
2019-02-17T23:34:17.761Z,80.21
2019-02-17T23:36:47.483Z,80.20
2019-02-17T23:39:17.169Z,80.24
2019-02-17T23:41:46.885Z,80.44
2019-02-17T23:44:16.610Z,80.46
2019-02-17T23:46:46.359Z,80.38
2019-02-17T23:49:16.062Z,80.50
2019-02-17T23:51:45.740Z,80.71
2019-02-17T23:54:15.453Z,80.42
2019-02-17T23:56:45.153Z,80.61
2019-02-17T23:59:14.851Z,80.59
